Time Latitude Longitude Accuracy (66% radius in meters) Altitude (meters) Speed (km/hour) Bearing (degrees) Battery (%) GPS flag
07:28:35 57.204738 60.114590 0 0 0 0 1 delete
07:28:34 57.204730 60.114525 0 0 0 0 1 delete
07:28:33 57.204730 60.114462 0 0 0 0 1 delete
07:28:32 57.204727 60.114390 0 0 0 0 1 delete
07:28:31 57.204733 60.114325 0 0 0 0 1 delete
07:28:30 57.204752 60.114285 0 0 0 0 1 delete
07:28:29 57.204783 60.114273 0 0 0 0 1 delete
07:28:28 57.204818 60.114290 0 0 0 0 1 delete
07:28:27 57.204845 60.114303 0 0 0 0 1 delete
07:28:26 57.204877 60.114317 0 0 0 0 1 delete
07:28:25 57.204908 60.114337 0 0 0 0 1 delete
07:28:24 57.204928 60.114360 0 0 0 0 1 delete
07:28:23 57.204948 60.114370 0 0 0 0 1 delete
07:28:22 57.204963 60.114375 0 0 0 0 1 delete
07:28:21 57.204970 60.114388 0 0 0 0 1 delete
07:28:20 57.204977 60.114392 0 0 0 0 1 delete
07:28:19 57.204993 60.114387 0 0 0 0 1 delete
07:28:18 57.205025 60.114397 0 0 0 0 1 delete
07:28:17 57.205055 60.114403 0 0 0 0 1 delete
07:28:16 57.205082 60.114392 0 0 0 0 1 delete
07:28:15 57.205103 60.114380 0 0 0 0 1 delete
07:28:14 57.205135 60.114378 0 0 0 0 1 delete
07:28:13 57.205162 60.114417 0 0 0 0 1 delete
07:28:12 57.205183 60.114495 0 0 0 0 1 delete
07:28:11 57.205197 60.114595 0 0 0 0 1 delete
07:28:10 57.205210 60.114698 0 0 0 0 1 delete
07:28:09 57.205225 60.114795 0 0 0 0 1 delete
07:28:08 57.205242 60.114877 0 0 0 0 1 delete
07:28:07 57.205260 60.114960 0 0 0 0 1 delete
07:28:06 57.205278 60.115043 0 0 0 0 1 delete
07:28:05 57.205288 60.115118 0 0 0 0 1 delete
07:28:04 57.205303 60.115173 0 0 0 0 1 delete
07:28:03 57.205320 60.115200 0 0 0 0 1 delete
07:28:02 57.205348 60.115197 0 0 0 0 1 delete
07:28:01 57.205377 60.115182 0 0 0 0 1 delete
07:28:00 57.205402 60.115155 0 0 0 0 1 delete
07:27:59 57.205425 60.115132 0 0 0 0 1 delete
07:27:58 57.205453 60.115102 0 0 0 0 1 delete
07:27:57 57.205485 60.115075 0 0 0 0 1 delete
07:27:56 57.205518 60.115042 0 0 0 0 1 delete
07:27:55 57.205545 60.114997 0 0 0 0 1 delete
07:27:54 57.205563 60.114945 0 0 0 0 1 delete
07:27:53 57.205587 60.114893 0 0 0 0 1 delete
07:27:52 57.205612 60.114833 0 0 0 0 1 delete
07:27:51 57.205637 60.114782 0 0 0 0 1 delete
07:27:50 57.205657 60.114728 0 0 0 0 1 delete
07:27:49 57.205682 60.114677 0 0 0 0 1 delete
07:27:48 57.205703 60.114627 0 0 0 0 1 delete
07:27:47 57.205723 60.114573 0 0 0 0 1 delete
07:27:46 57.205743 60.114528 0 0 0 0 1 delete